createdAt,value
2022-11-02T00:02:23.317Z,1.80
2022-11-02T00:05:14.300Z,2.30
2022-11-02T00:08:01.489Z,2.00
2022-11-02T00:10:48.492Z,2.10
2022-11-02T00:13:35.515Z,2.10
2022-11-02T00:16:23.774Z,2.47
2022-11-02T00:19:11.031Z,1.80
2022-11-02T00:21:58.864Z,2.13
2022-11-02T00:24:45.886Z,2.50
2022-11-02T00:27:34.480Z,2.17
2022-11-02T00:30:21.798Z,2.93
2022-11-02T00:33:08.765Z,4.00
2022-11-02T00:35:56.141Z,3.30
2022-11-02T00:38:43.199Z,4.13
2022-11-02T00:41:30.783Z,5.70
2022-11-02T00:44:18.322Z,4.93
2022-11-02T00:47:05.535Z,6.40
2022-11-02T00:49:52.659Z,7.57
2022-11-02T00:52:40.377Z,16.90
2022-11-02T00:55:27.353Z,18.50
2022-11-02T00:58:15.551Z,9.03
2022-11-02T01:01:07.565Z,8.20
2022-11-02T01:03:57.018Z,24.13
2022-11-02T01:06:45.025Z,21.90
2022-11-02T01:09:32.071Z,15.57
2022-11-02T01:12:19.047Z,10.60
2022-11-02T01:15:08.113Z,6.43
2022-11-02T01:17:55.050Z,4.13
2022-11-02T01:20:42.027Z,2.87
2022-11-02T01:23:33.177Z,3.83
2022-11-02T01:26:20.196Z,2.90
2022-11-02T01:29:07.225Z,2.70
2022-11-02T01:31:54.651Z,2.43
2022-11-02T01:34:41.686Z,2.27
2022-11-02T01:37:28.656Z,2.70
2022-11-02T01:40:15.754Z,2.87
2022-11-02T01:43:22.337Z,3.97
2022-11-02T01:46:12.518Z,3.13
2022-11-02T01:49:09.188Z,4.00
2022-11-02T01:52:07.479Z,2.90
2022-11-02T01:55:01.574Z,2.73
2022-11-02T01:57:56.011Z,2.10
2022-11-02T02:00:43.265Z,3.00
2022-11-02T02:03:32.920Z,2.37
2022-11-02T02:06:20.396Z,2.30
2022-11-02T02:09:08.984Z,2.27
2022-11-02T02:11:55.943Z,2.60
2022-11-02T02:14:43.578Z,2.30
2022-11-02T02:17:52.922Z,2.23
2022-11-02T02:20:58.556Z,2.30
2022-11-02T02:23:48.504Z,2.23
2022-11-02T02:26:59.380Z,2.27
2022-11-02T02:29:52.540Z,2.30
2022-11-02T02:33:01.126Z,2.27
2022-11-02T02:35:57.013Z,2.23
2022-11-02T02:38:49.331Z,2.00
2022-11-02T02:41:43.289Z,2.37
2022-11-02T02:44:36.052Z,2.90
2022-11-02T02:47:27.890Z,1.90
2022-11-02T02:50:32.138Z,2.40
2022-11-02T02:53:31.348Z,2.87
2022-11-02T02:56:21.956Z,2.63
2022-11-02T02:59:18.515Z,2.47
2022-11-02T03:02:14.972Z,2.20
2022-11-02T03:05:02.048Z,1.80
2022-11-02T03:07:49.009Z,2.40
2022-11-02T03:10:38.924Z,2.03
2022-11-02T03:13:52.355Z,1.90
2022-11-02T03:16:56.303Z,1.90
2022-11-02T03:20:01.746Z,2.60
2022-11-02T03:22:48.618Z,2.87
2022-11-02T03:25:47.103Z,2.10
2022-11-02T03:28:43.703Z,2.20
2022-11-02T03:31:51.161Z,2.23
2022-11-02T03:34:43.090Z,2.00
2022-11-02T03:37:35.354Z,2.47
2022-11-02T03:40:38.010Z,2.47
2022-11-02T03:43:25.856Z,2.53
2022-11-02T03:46:14.970Z,1.93
2022-11-02T03:49:07.675Z,2.40
2022-11-02T03:51:59.081Z,2.00
2022-11-02T03:54:58.518Z,2.10
2022-11-02T03:57:49.174Z,2.17
2022-11-02T04:00:38.260Z,2.13
2022-11-02T04:03:25.456Z,2.60
2022-11-02T04:06:12.954Z,2.27
2022-11-02T04:09:00.742Z,2.30
2022-11-02T04:12:06.184Z,2.23
2022-11-02T04:14:53.210Z,2.20
2022-11-02T04:17:58.716Z,2.33
2022-11-02T04:20:52.873Z,2.30
2022-11-02T04:23:58.455Z,1.90
2022-11-02T04:26:45.510Z,2.67
2022-11-02T04:29:32.491Z,2.00
2022-11-02T04:32:39.542Z,2.23
2022-11-02T04:35:26.916Z,2.60
2022-11-02T04:38:32.576Z,2.13
2022-11-02T04:41:40.884Z,2.73
2022-11-02T04:44:28.939Z,2.50
2022-11-02T04:47:16.142Z,3.53
2022-11-02T04:50:03.322Z,2.00
2022-11-02T04:53:02.305Z,2.37
2022-11-02T04:55:49.239Z,2.50
2022-11-02T04:58:36.404Z,2.10
2022-11-02T05:01:25.582Z,2.70
2022-11-02T05:04:12.715Z,2.13
2022-11-02T05:07:01.659Z,2.77
2022-11-02T05:09:48.912Z,2.33
2022-11-02T05:12:36.268Z,2.87
2022-11-02T05:15:23.452Z,2.33
2022-11-02T05:18:14.812Z,2.70
2022-11-02T05:21:04.946Z,2.30
2022-11-02T05:23:51.949Z,2.30
2022-11-02T05:26:38.922Z,2.30
2022-11-02T05:29:26.492Z,2.40
2022-11-02T05:32:13.465Z,2.40
2022-11-02T05:35:00.419Z,2.40
2022-11-02T05:37:47.361Z,3.17
2022-11-02T05:40:37.292Z,2.80
2022-11-02T05:43:24.980Z,3.87
2022-11-02T05:46:14.819Z,4.77
2022-11-02T05:49:01.800Z,5.40
2022-11-02T05:51:49.197Z,5.07
2022-11-02T05:54:36.257Z,5.77
2022-11-02T05:57:23.206Z,4.73
2022-11-02T06:00:11.898Z,3.83
2022-11-02T06:02:59.309Z,3.40
2022-11-02T06:05:46.269Z,3.87
2022-11-02T06:08:34.880Z,5.47
2022-11-02T06:11:21.997Z,2.87
2022-11-02T06:14:09.068Z,3.50
2022-11-02T06:16:56.802Z,3.50
2022-11-02T06:19:43.821Z,3.40
2022-11-02T06:22:30.788Z,3.20
2022-11-02T06:25:17.993Z,3.60
2022-11-02T06:28:05.090Z,3.63
2022-11-02T06:30:52.709Z,2.83
2022-11-02T06:33:39.675Z,3.13
2022-11-02T06:36:26.625Z,2.63
2022-11-02T06:39:13.605Z,2.33
2022-11-02T06:42:00.545Z,2.70
2022-11-02T06:44:47.623Z,2.37
2022-11-02T06:47:36.885Z,2.13
2022-11-02T06:50:24.869Z,2.63
2022-11-02T06:53:11.848Z,2.63
2022-11-02T06:55:59.863Z,2.50
2022-11-02T06:58:47.061Z,3.23
2022-11-02T07:01:35.256Z,4.47
2022-11-02T07:04:22.837Z,3.23
2022-11-02T07:07:10.190Z,5.80
2022-11-02T07:09:57.466Z,2.90
2022-11-02T07:12:44.523Z,2.83
2022-11-02T07:15:31.487Z,2.77
2022-11-02T07:18:18.510Z,3.23
2022-11-02T07:21:05.773Z,3.37
2022-11-02T07:23:52.788Z,3.00
2022-11-02T07:26:39.764Z,3.63
2022-11-02T07:29:26.712Z,3.33
2022-11-02T07:32:13.913Z,3.77
2022-11-02T07:35:00.888Z,4.17
2022-11-02T07:38:02.341Z,3.93
2022-11-02T07:40:52.668Z,3.50
2022-11-02T07:43:42.996Z,3.87
2022-11-02T07:46:31.127Z,3.33
2022-11-02T07:49:21.490Z,2.87
2022-11-02T07:52:08.735Z,2.53
2022-11-02T07:54:55.864Z,2.47
2022-11-02T07:57:43.744Z,2.67
2022-11-02T08:00:33.596Z,1.83
2022-11-02T08:03:20.762Z,2.67
2022-11-02T08:06:07.973Z,2.07
2022-11-02T08:08:56.719Z,2.30
2022-11-02T08:11:43.685Z,2.00
2022-11-02T08:14:30.652Z,2.43
2022-11-02T08:17:17.698Z,2.13
2022-11-02T08:20:06.044Z,2.53
2022-11-02T08:22:52.982Z,1.90
2022-11-02T08:25:40.541Z,2.13
2022-11-02T08:28:39.978Z,2.33
2022-11-02T08:31:26.921Z,2.27
2022-11-02T08:34:14.032Z,2.10
2022-11-02T08:37:00.964Z,2.30
2022-11-02T08:39:47.908Z,2.77
2022-11-02T08:42:34.888Z,2.57
2022-11-02T08:45:21.831Z,2.57
2022-11-02T08:48:09.118Z,2.60
2022-11-02T08:50:56.270Z,2.67
2022-11-02T08:53:48.516Z,2.53
2022-11-02T08:56:37.350Z,2.57
2022-11-02T08:59:24.307Z,2.60
2022-11-02T09:02:11.404Z,2.63
2022-11-02T09:04:58.485Z,2.27
2022-11-02T09:07:45.423Z,2.40
2022-11-02T09:10:34.681Z,2.30
2022-11-02T09:13:25.339Z,1.90
2022-11-02T09:16:12.573Z,2.20
2022-11-02T09:18:59.924Z,2.70
2022-11-02T09:21:48.034Z,2.80
2022-11-02T09:24:35.156Z,2.47
2022-11-02T09:27:22.079Z,2.03
2022-11-02T09:30:10.082Z,2.00
2022-11-02T09:33:02.608Z,1.93
2022-11-02T09:35:49.983Z,2.40
2022-11-02T09:38:37.042Z,2.17
2022-11-02T09:41:33.650Z,2.37
2022-11-02T09:44:49.436Z,2.37
2022-11-02T09:51:01.979Z,2.70
2022-11-02T09:54:18.104Z,2.57
2022-11-02T09:57:10.423Z,2.37
2022-11-02T09:59:57.679Z,2.70
2022-11-02T10:02:58.896Z,2.40
2022-11-02T10:06:03.056Z,2.73
2022-11-02T10:08:52.719Z,2.10
2022-11-02T10:11:55.830Z,2.30
2022-11-02T10:14:59.399Z,2.23
2022-11-02T10:17:50.720Z,1.87
2022-11-02T10:20:49.646Z,2.30
2022-11-02T10:23:54.035Z,2.10
2022-11-02T10:26:43.430Z,1.90
2022-11-02T10:29:40.155Z,2.50
2022-11-02T10:32:27.302Z,2.07
2022-11-02T10:35:51.400Z,2.30
2022-11-02T10:39:07.165Z,1.90
2022-11-02T10:41:59.737Z,2.50
2022-11-02T10:44:52.510Z,1.97
2022-11-02T10:48:12.129Z,1.90
2022-11-02T10:51:12.607Z,2.43
2022-11-02T10:53:59.753Z,1.90
2022-11-02T10:56:47.151Z,1.93
2022-11-02T10:59:34.105Z,2.43
2022-11-02T11:02:21.043Z,2.00
2022-11-02T11:05:14.568Z,1.40
2022-11-02T11:08:02.851Z,1.40
2022-11-02T11:10:50.169Z,1.73
2022-11-02T11:20:34.086Z,1.33
2022-11-02T11:23:25.408Z,1.57
2022-11-02T11:26:27.595Z,1.50
2022-11-02T11:29:23.738Z,1.60
2022-11-02T11:32:18.022Z,1.70
2022-11-02T11:35:17.298Z,1.80
2022-11-02T11:38:16.969Z,1.70
2022-11-02T11:41:04.456Z,1.93
2022-11-02T11:43:53.078Z,1.90
2022-11-02T11:46:44.488Z,1.57
2022-11-02T11:49:55.022Z,2.23
2022-11-02T11:52:42.479Z,2.07
2022-11-02T11:55:31.865Z,1.90
2022-11-02T11:58:24.693Z,2.17
2022-11-02T12:01:14.754Z,2.93
2022-11-02T12:04:02.058Z,2.47
2022-11-02T12:06:55.451Z,1.73
2022-11-02T12:09:48.813Z,2.20
2022-11-02T12:12:50.570Z,1.90
2022-11-02T12:15:55.302Z,1.87
2022-11-02T12:18:48.297Z,2.20
2022-11-02T12:21:38.258Z,1.63
2022-11-02T12:24:54.502Z,1.63
2022-11-02T12:27:59.329Z,1.87
2022-11-02T12:31:02.263Z,1.13
2022-11-02T12:34:01.517Z,1.60
2022-11-02T12:37:38.630Z,1.77
2022-11-02T12:40:44.638Z,1.57
2022-11-02T12:43:40.889Z,1.63
2022-11-02T12:46:42.262Z,1.60
2022-11-02T12:49:56.751Z,1.30
2022-11-02T12:52:49.705Z,1.57
2022-11-02T12:55:42.044Z,1.80
2022-11-02T12:58:36.712Z,1.80
2022-11-02T13:01:30.717Z,2.03
2022-11-02T13:04:26.106Z,1.80
2022-11-02T13:07:21.551Z,1.70
2022-11-02T13:10:21.973Z,1.47
2022-11-02T13:13:16.612Z,0.43
2022-11-02T13:16:06.159Z,0.70
2022-11-02T13:18:56.400Z,0.93
2022-11-02T13:21:49.057Z,1.00
2022-11-02T13:24:43.875Z,0.80
2022-11-02T13:27:39.204Z,0.93
2022-11-02T13:30:28.538Z,0.97
2022-11-02T13:33:41.010Z,1.03
2022-11-02T13:36:28.261Z,1.20
2022-11-02T13:39:22.552Z,1.20
2022-11-02T13:42:22.216Z,1.43
2022-11-02T13:45:22.288Z,1.30
2022-11-02T13:48:34.429Z,1.10
2022-11-02T13:51:43.646Z,1.37
2022-11-02T13:54:53.575Z,1.10
2022-11-02T13:57:48.224Z,2.03
2022-11-02T14:00:44.620Z,1.17
2022-11-02T14:04:01.426Z,1.30
2022-11-02T14:07:18.420Z,1.57
2022-11-02T14:10:15.338Z,1.90
2022-11-02T14:13:02.396Z,1.53
2022-11-02T14:15:53.062Z,1.40
2022-11-02T14:18:40.816Z,1.43
2022-11-02T14:21:42.731Z,1.90
2022-11-02T14:24:32.431Z,1.40
2022-11-02T14:27:21.099Z,1.30
2022-11-02T14:30:41.525Z,1.70
2022-11-02T14:33:40.474Z,1.40
2022-11-02T14:36:49.031Z,1.90
2022-11-02T14:39:52.757Z,1.30
2022-11-02T14:43:17.611Z,2.37
2022-11-02T14:46:09.382Z,2.30
2022-11-02T14:49:00.577Z,1.83
2022-11-02T14:52:04.566Z,1.70
2022-11-02T14:55:06.158Z,1.73
2022-11-02T14:58:03.354Z,1.73
2022-11-02T15:00:52.391Z,1.50
2022-11-02T15:03:41.943Z,1.53
2022-11-02T15:06:29.227Z,2.07
2022-11-02T15:09:54.678Z,1.43
2022-11-02T15:12:47.473Z,1.90
2022-11-02T15:15:37.551Z,2.43
2022-11-02T15:18:37.212Z,2.63
2022-11-02T15:21:24.651Z,3.47
2022-11-02T15:24:19.919Z,2.93
2022-11-02T15:27:07.424Z,3.70
2022-11-02T15:29:54.631Z,3.07
2022-11-02T15:32:51.391Z,4.20
2022-11-02T15:35:39.010Z,4.30
2022-11-02T15:38:33.954Z,4.27
2022-11-02T15:41:44.891Z,4.40
2022-11-02T15:44:37.530Z,3.10
2022-11-02T15:47:50.709Z,3.17
2022-11-02T15:51:00.214Z,3.77
2022-11-02T15:54:07.276Z,2.63
2022-11-02T15:57:23.289Z,3.43
2022-11-02T16:00:30.428Z,2.43
2022-11-02T16:03:17.919Z,3.80
2022-11-02T16:06:06.164Z,4.17
2022-11-02T16:08:53.413Z,3.90
2022-11-02T16:11:40.331Z,3.30
2022-11-02T16:14:32.110Z,3.10
2022-11-02T16:17:20.089Z,3.57
2022-11-02T16:20:25.337Z,3.17
2022-11-02T16:23:25.055Z,5.37
2022-11-02T16:26:21.852Z,3.43
2022-11-02T16:29:09.732Z,3.87
2022-11-02T16:31:57.341Z,6.77
2022-11-02T16:34:45.138Z,16.53
2022-11-02T16:37:32.824Z,12.10
2022-11-02T16:40:21.110Z,9.13
2022-11-02T16:43:13.966Z,10.87
2022-11-02T16:46:04.055Z,7.83
2022-11-02T16:49:02.071Z,6.33
2022-11-02T16:52:00.629Z,5.00
2022-11-02T16:54:47.745Z,4.43
2022-11-02T16:57:44.265Z,3.83
2022-11-02T17:00:31.261Z,3.70
2022-11-02T17:03:23.873Z,3.93
2022-11-02T17:06:10.898Z,4.37
2022-11-02T17:08:57.874Z,4.60
2022-11-02T17:11:45.039Z,4.83
2022-11-02T17:14:33.058Z,4.10
2022-11-02T17:17:23.071Z,4.50
2022-11-02T17:20:16.084Z,3.67
2022-11-02T17:23:09.551Z,4.17
2022-11-02T17:26:22.679Z,4.63
2022-11-02T17:29:25.001Z,3.53
2022-11-02T17:32:16.911Z,3.23
2022-11-02T17:35:04.935Z,3.10
2022-11-02T17:37:53.348Z,3.50
2022-11-02T17:40:40.538Z,3.20
2022-11-02T17:43:28.088Z,2.80
2022-11-02T17:46:15.033Z,2.93
2022-11-02T17:49:02.006Z,3.23
2022-11-02T17:51:48.955Z,3.10
2022-11-02T17:54:35.917Z,3.73
2022-11-02T17:57:22.878Z,3.70
2022-11-02T18:00:10.947Z,4.83
2022-11-02T18:02:59.232Z,5.07
2022-11-02T18:05:49.549Z,5.23
2022-11-02T18:08:56.745Z,5.77
2022-11-02T18:11:43.696Z,4.77
2022-11-02T18:14:30.714Z,3.47
2022-11-02T18:17:18.088Z,3.00
2022-11-02T18:20:05.503Z,3.63
2022-11-02T18:22:52.474Z,2.97
2022-11-02T18:25:39.493Z,3.07
2022-11-02T18:28:26.491Z,2.90
2022-11-02T18:31:13.472Z,2.83
2022-11-02T18:34:00.956Z,2.67
2022-11-02T18:36:48.022Z,2.23
2022-11-02T18:39:35.103Z,2.67
2022-11-02T18:42:22.137Z,2.63
2022-11-02T18:45:11.262Z,2.87
2022-11-02T18:47:58.293Z,3.10
2022-11-02T18:50:45.258Z,2.90
2022-11-02T18:53:32.181Z,3.03
2022-11-02T18:56:21.044Z,3.00
2022-11-02T18:59:08.048Z,2.47
2022-11-02T19:01:55.346Z,3.33
2022-11-02T19:04:42.387Z,3.93
2022-11-02T19:07:48.254Z,4.87
2022-11-02T19:10:35.311Z,4.03
2022-11-02T19:13:22.433Z,3.57
2022-11-02T19:16:09.357Z,3.77
2022-11-02T19:18:56.274Z,3.47
2022-11-02T19:21:43.360Z,3.77
2022-11-02T19:24:30.329Z,5.70
2022-11-02T19:27:22.722Z,12.10
2022-11-02T19:30:10.229Z,8.97
2022-11-02T19:32:57.406Z,6.57
2022-11-02T19:35:54.996Z,5.53
2022-11-02T19:38:41.922Z,8.63
2022-11-02T19:41:30.127Z,8.67
2022-11-02T19:44:17.083Z,7.60
2022-11-02T19:47:04.150Z,8.30
2022-11-02T19:49:51.072Z,7.90
2022-11-02T19:52:38.082Z,5.27
2022-11-02T19:55:29.217Z,4.47
2022-11-02T19:58:16.143Z,3.97
2022-11-02T20:01:11.713Z,4.73
2022-11-02T20:03:59.259Z,4.90
2022-11-02T20:06:46.256Z,4.70
2022-11-02T20:09:33.195Z,4.07
2022-11-02T20:12:20.207Z,4.40
2022-11-02T20:15:07.913Z,4.10
2022-11-02T20:18:17.841Z,3.60
2022-11-02T20:21:19.753Z,3.87
2022-11-02T20:24:07.843Z,4.77
2022-11-02T20:26:57.090Z,4.73
2022-11-02T20:29:44.080Z,4.10
2022-11-02T20:32:31.063Z,3.53
2022-11-02T20:35:22.764Z,3.60
2022-11-02T20:38:09.780Z,3.60
2022-11-02T20:41:08.112Z,3.60
2022-11-02T20:43:55.893Z,3.23
2022-11-02T20:46:50.078Z,3.30
2022-11-02T20:49:55.204Z,2.60
2022-11-02T20:52:42.456Z,3.03
2022-11-02T20:55:29.476Z,3.43
2022-11-02T20:58:16.446Z,3.10
2022-11-02T21:01:03.536Z,3.17
2022-11-02T21:03:50.712Z,2.40
2022-11-02T21:06:37.666Z,3.23
2022-11-02T21:09:25.434Z,2.63
2022-11-02T21:12:34.500Z,2.33
2022-11-02T21:15:21.454Z,2.33
2022-11-02T21:18:08.418Z,4.37
2022-11-02T21:20:55.442Z,5.00
2022-11-02T21:23:42.591Z,5.40
2022-11-02T21:26:29.540Z,4.00
2022-11-02T21:29:16.486Z,3.47
2022-11-02T21:32:03.590Z,3.27
2022-11-02T21:34:50.525Z,2.90
2022-11-02T21:37:37.571Z,2.53
2022-11-02T21:40:24.661Z,2.77
2022-11-02T21:43:11.756Z,2.30
2022-11-02T21:46:00.745Z,2.90
2022-11-02T21:48:47.971Z,2.40
2022-11-02T21:51:36.031Z,2.27
2022-11-02T21:54:23.103Z,2.33
2022-11-02T21:57:10.048Z,2.97
2022-11-02T21:59:57.349Z,2.90
2022-11-02T22:02:44.447Z,2.37
2022-11-02T22:05:50.024Z,2.93
2022-11-02T22:08:39.908Z,2.87
2022-11-02T22:11:27.298Z,2.50
2022-11-02T22:14:14.524Z,2.53
2022-11-02T22:17:02.682Z,2.40
2022-11-02T22:19:54.525Z,2.73
2022-11-02T22:22:41.471Z,2.70
2022-11-02T22:25:28.875Z,2.57
2022-11-02T22:28:15.934Z,2.57
2022-11-02T22:31:26.756Z,2.57
2022-11-02T22:34:15.084Z,2.30
2022-11-02T22:37:22.075Z,2.63
2022-11-02T22:40:09.471Z,2.30
2022-11-02T22:42:56.426Z,2.60
2022-11-02T22:45:43.341Z,2.90
2022-11-02T22:48:30.873Z,3.20
2022-11-02T22:51:19.224Z,2.90
2022-11-02T22:54:08.379Z,2.77
2022-11-02T22:56:55.585Z,2.83
2022-11-02T22:59:42.516Z,2.43
2022-11-02T23:02:29.469Z,3.37
2022-11-02T23:05:16.555Z,2.80
2022-11-02T23:08:03.657Z,2.47
2022-11-02T23:11:13.853Z,2.63
2022-11-02T23:14:03.631Z,2.43
2022-11-02T23:16:50.608Z,2.70
2022-11-02T23:19:38.324Z,2.43
2022-11-02T23:22:31.008Z,3.00
2022-11-02T23:25:19.004Z,2.47
2022-11-02T23:31:35.547Z,3.30
2022-11-02T23:34:22.520Z,3.43
2022-11-02T23:37:09.455Z,2.60
2022-11-02T23:39:56.847Z,3.63
2022-11-02T23:42:43.828Z,3.17
2022-11-02T23:45:30.777Z,2.63
2022-11-02T23:48:17.704Z,2.77
2022-11-02T23:51:23.553Z,3.17
2022-11-02T23:54:29.226Z,2.90
2022-11-02T23:57:16.254Z,3.20
